Time;durP1;ratioP1;P1;durP2;ratioP2;P2;SDS_P1;SDS_P2;PMS_P1;PMS_P2;Temp;Humidity;BMP_temperature;BMP_pressure;BME280_temperature;BME280_humidity;BME280_pressure;Samples;Min_cycle;Max_cycle;Signal;HPM_P1;HPM_P2
2023/06/06 00:00:34;;;;;;;5.27;3.70;;;18.90;76.60;;;;;;10214254;28;20294;-66
2023/06/06 00:05:35;;;;;;;7.47;3.70;;;18.90;76.70;;;;;;10223017;28;20230;-66
2023/06/06 00:10:35;;;;;;;7.07;3.70;;;18.90;76.50;;;;;;10215617;28;20223;-67
2023/06/06 00:15:38;;;;;;;4.83;3.43;;;19.00;76.60;;;;;;10224344;28;20235;-69
2023/06/06 00:20:40;;;;;;;6.20;4.00;;;18.90;77.50;;;;;;10214487;28;20240;-66
2023/06/06 00:25:41;;;;;;;6.23;3.83;;;18.90;77.00;;;;;;10221976;28;20266;-67
2023/06/06 00:30:42;;;;;;;3.90;3.57;;;18.90;77.30;;;;;;10227760;28;20227;-67
2023/06/06 00:35:42;;;;;;;5.27;3.60;;;18.70;77.80;;;;;;10217061;28;20235;-66
2023/06/06 00:40:43;;;;;;;4.90;3.60;;;18.60;78.20;;;;;;10221810;28;20231;-66
2023/06/06 00:45:43;;;;;;;6.30;4.37;;;18.50;78.90;;;;;;10224606;28;20227;-68
2023/06/06 00:50:47;;;;;;;4.80;4.03;;;18.40;79.20;;;;;;10223740;28;20313;-65
2023/06/06 00:55:47;;;;;;;4.13;3.70;;;18.40;79.70;;;;;;10224801;28;20742;-66
2023/06/06 01:00:48;;;;;;;5.47;3.90;;;18.30;80.50;;;;;;10231452;28;20233;-66
2023/06/06 01:05:49;;;;;;;7.13;3.80;;;18.20;81.40;;;;;;10242865;28;20693;-71
2023/06/06 01:10:51;;;;;;;5.33;4.10;;;18.10;82.10;;;;;;10240760;28;20235;-67
2023/06/06 01:15:55;;;;;;;5.90;4.10;;;18.00;82.70;;;;;;10231229;28;20244;-66
2023/06/06 01:20:55;;;;;;;6.83;4.20;;;17.90;83.20;;;;;;10227750;28;20224;-66
2023/06/06 01:25:56;;;;;;;9.17;4.93;;;17.90;83.80;;;;;;10228956;28;20208;-66
2023/06/06 01:30:57;;;;;;;6.20;4.70;;;17.80;84.40;;;;;;10225771;28;20276;-68
2023/06/06 01:36:28;;;;;;;5.97;4.13;;;17.70;85.10;;;;;;10222185;28;20216;-68
2023/06/06 01:41:33;;;;;;;4.43;4.03;;;17.60;85.90;;;;;;10228111;28;20932;-68
2023/06/06 01:46:35;;;;;;;4.20;3.80;;;17.60;86.40;;;;;;10241669;28;20298;-65
2023/06/06 01:51:39;;;;;;;4.40;4.00;;;17.50;86.90;;;;;;10226487;28;20278;-65
2023/06/06 01:56:40;;;;;;;4.20;3.80;;;17.40;87.30;;;;;;10234129;28;20231;-68
2023/06/06 02:01:40;;;;;;;7.53;4.00;;;17.20;88.30;;;;;;10221008;28;20746;-69
2023/06/06 02:06:41;;;;;;;7.47;3.87;;;17.10;89.10;;;;;;10239335;28;20247;-67
2023/06/06 02:11:43;;;;;;;6.20;4.00;;;17.10;90.00;;;;;;10237736;28;20227;-66
2023/06/06 02:16:45;;;;;;;6.00;4.27;;;17.00;90.20;;;;;;10233391;28;20310;-71
2023/06/06 02:21:47;;;;;;;4.43;4.00;;;17.10;90.40;;;;;;10226416;28;20261;-69
2023/06/06 02:26:48;;;;;;;5.97;4.70;;;17.20;90.40;;;;;;10235141;28;20247;-68
2023/06/06 02:31:50;;;;;;;4.43;3.97;;;17.10;90.60;;;;;;10232363;28;20242;-68
2023/06/06 02:36:53;;;;;;;4.90;4.20;;;17.10;90.90;;;;;;10241406;28;20223;-68
2023/06/06 02:41:54;;;;;;;4.67;4.10;;;16.90;91.20;;;;;;10224327;28;20258;-68
2023/06/06 02:46:54;;;;;;;8.77;4.10;;;16.80;91.50;;;;;;10234109;28;20246;-67
2023/06/06 02:51:58;;;;;;;4.60;4.10;;;16.80;92.10;;;;;;10233046;28;20227;-68
2023/06/06 02:56:58;;;;;;;7.33;4.30;;;16.80;92.20;;;;;;10219810;28;20722;-69
2023/06/06 03:02:01;;;;;;;5.03;4.20;;;16.80;92.30;;;;;;10235244;28;20250;-67
2023/06/06 03:07:01;;;;;;;4.73;4.23;;;16.60;92.80;;;;;;10229313;28;20228;-67
2023/06/06 03:12:02;;;;;;;4.50;4.10;;;16.50;93.20;;;;;;10230954;28;20241;-67
2023/06/06 03:17:03;;;;;;;8.47;4.30;;;16.40;93.60;;;;;;10227080;28;20219;-67
2023/06/06 03:22:04;;;;;;;8.87;4.33;;;16.40;94.20;;;;;;10228492;28;20230;-67
2023/06/06 03:27:05;;;;;;;6.60;4.30;;;16.40;94.50;;;;;;10226954;28;20228;-69
2023/06/06 03:32:06;;;;;;;5.63;4.10;;;16.50;94.60;;;;;;10224201;28;20238;-69
2023/06/06 03:37:07;;;;;;;5.83;4.63;;;16.50;94.90;;;;;;10233889;28;20220;-69
2023/06/06 03:42:07;;;;;;;10.07;4.87;;;16.50;94.90;;;;;;10232809;28;20231;-69
2023/06/06 03:47:08;;;;;;;7.73;4.33;;;16.60;95.10;;;;;;10230763;28;20234;-69
2023/06/06 03:52:10;;;;;;;7.90;5.00;;;16.70;95.20;;;;;;10229261;28;20245;-69
2023/06/06 03:57:10;;;;;;;6.27;4.70;;;16.80;95.20;;;;;;10223562;28;20223;-69
2023/06/06 04:02:11;;;;;;;5.37;3.97;;;16.90;95.00;;;;;;10231575;28;20592;-69
2023/06/06 04:07:12;;;;;;;5.87;4.70;;;16.90;95.00;;;;;;10222814;28;20223;-69
2023/06/06 04:12:13;;;;;;;9.33;4.57;;;17.00;94.70;;;;;;10229953;28;20235;-66
2023/06/06 04:17:13;;;;;;;5.93;4.50;;;17.00;94.50;;;;;;10233090;28;20295;-68
2023/06/06 04:22:22;;;;;;;9.93;5.00;;;17.20;94.50;;;;;;10238405;28;20220;-72
2023/06/06 04:27:23;;;;;;;7.50;4.90;;;17.30;94.00;;;;;;10217160;28;20223;-67
2023/06/06 04:32:24;;;;;;;9.00;4.70;;;17.40;94.20;;;;;;10228063;28;20227;-68
2023/06/06 04:37:27;;;;;;;9.40;5.27;;;17.70;93.30;;;;;;10237439;28;20211;-66
2023/06/06 04:42:32;;;;;;;7.27;4.30;;;18.00;92.50;;;;;;10237254;28;20668;-67
2023/06/06 04:47:40;;;;;;;7.53;4.70;;;18.10;91.80;;;;;;10232782;28;20226;-68
2023/06/06 04:52:40;;;;;;;6.13;4.50;;;18.20;91.60;;;;;;10245662;28;20227;-67
2023/06/06 04:57:44;;;;;;;7.03;4.93;;;18.40;91.10;;;;;;10237999;28;20215;-67
2023/06/06 05:03:06;;;;;;;8.50;4.80;;;18.60;90.50;;;;;;10256542;28;20224;-68
2023/06/06 05:08:07;;;;;;;6.67;4.60;;;20.20;86.50;;;;;;10261795;28;20219;-70
2023/06/06 05:13:08;;;;;;;6.93;4.60;;;22.20;75.50;;;;;;10242074;28;20710;-70
2023/06/06 05:18:10;;;;;;;7.67;4.17;;;23.50;70.40;;;;;;10226869;28;20223;-70
2023/06/06 05:23:12;;;;;;;10.83;4.80;;;24.20;65.60;;;;;;10225187;28;20274;-70
2023/06/06 05:28:13;;;;;;;6.10;4.70;;;24.70;63.00;;;;;;10229204;28;20699;-72
2023/06/06 05:33:13;;;;;;;8.47;4.80;;;25.30;60.60;;;;;;10221944;28;20219;-71
2023/06/06 05:38:16;;;;;;;7.03;4.47;;;26.00;58.60;;;;;;10222340;28;20939;-72
2023/06/06 05:43:16;;;;;;;5.10;4.27;;;26.80;57.00;;;;;;10229678;28;20231;-72
2023/06/06 05:48:17;;;;;;;5.03;3.83;;;28.00;54.00;;;;;;10220588;28;20227;-72
2023/06/06 05:53:17;;;;;;;7.63;4.27;;;28.30;52.40;;;;;;10231476;28;20593;-72
2023/06/06 05:58:18;;;;;;;5.97;3.97;;;27.60;52.40;;;;;;10223975;28;20224;-72
2023/06/06 06:03:20;;;;;;;5.40;4.07;;;27.50;53.20;;;;;;10229015;28;20319;-72
2023/06/06 06:08:24;;;;;;;7.07;4.20;;;28.00;52.30;;;;;;10227193;28;20216;-71
2023/06/06 06:13:25;;;;;;;5.53;4.10;;;28.40;51.50;;;;;;10228486;28;20258;-71
2023/06/06 06:18:25;;;;;;;5.60;4.30;;;29.60;50.10;;;;;;10222577;28;20255;-71
2023/06/06 06:23:29;;;;;;;9.33;4.37;;;29.90;48.70;;;;;;10220839;28;20223;-71
2023/06/06 06:28:29;;;;;;;6.43;4.00;;;29.60;49.40;;;;;;10228492;28;20270;-71
2023/06/06 06:33:33;;;;;;;5.53;3.90;;;29.70;48.70;;;;;;10226647;28;20276;-72
2023/06/06 06:38:36;;;;;;;5.43;4.03;;;31.90;47.20;;;;;;10231879;28;20219;-72
2023/06/06 06:43:36;;;;;;;7.67;4.00;;;33.00;44.00;;;;;;10220518;28;20683;-72
2023/06/06 06:48:37;;;;;;;6.50;4.43;;;32.20;44.00;;;;;;10223759;28;20297;-71
2023/06/06 06:53:39;;;;;;;8.63;4.27;;;31.70;44.90;;;;;;10226574;28;20231;-71
2023/06/06 06:58:41;;;;;;;5.77;4.07;;;33.00;44.00;;;;;;10224427;28;20216;-71
2023/06/06 07:03:44;;;;;;;6.93;4.60;;;31.30;44.60;;;;;;10226240;28;20220;-71
2023/06/06 07:08:44;;;;;;;4.47;3.97;;;30.80;45.50;;;;;;10225775;28;20219;-71
2023/06/06 07:13:45;;;;;;;10.30;4.33;;;30.40;46.70;;;;;;10217681;28;20227;-72
2023/06/06 07:18:47;;;;;;;5.27;4.13;;;30.90;46.60;;;;;;10216812;28;20219;-72
2023/06/06 07:23:48;;;;;;;6.03;3.80;;;31.50;44.90;;;;;;10225847;28;20231;-70
2023/06/06 07:28:49;;;;;;;8.97;4.10;;;31.60;43.50;;;;;;10217550;28;20232;-71
2023/06/06 07:33:49;;;;;;;4.60;3.03;;;31.50;44.20;;;;;;10225136;28;20231;-71
2023/06/06 07:38:50;;;;;;;5.50;3.70;;;32.40;41.80;;;;;;10222431;28;20224;-71
2023/06/06 07:43:51;;;;;;;4.10;3.30;;;32.40;40.50;;;;;;10230631;28;20223;-71
2023/06/06 07:48:52;;;;;;;6.70;3.23;;;33.30;40.00;;;;;;10225365;28;20310;-72
2023/06/06 07:53:53;;;;;;;5.30;3.20;;;34.60;39.60;;;;;;10235054;28;20259;-72
2023/06/06 07:58:54;;;;;;;3.97;3.10;;;34.70;38.00;;;;;;10231079;28;20230;-71
2023/06/06 08:03:55;;;;;;;6.17;3.20;;;35.20;36.80;;;;;;10225899;28;20257;-71
2023/06/06 08:08:57;;;;;;;6.53;3.17;;;35.70;35.80;;;;;;10217807;28;20317;-71
2023/06/06 08:13:58;;;;;;;7.60;3.33;;;35.80;35.80;;;;;;10223428;28;20223;-71
2023/06/06 08:18:58;;;;;;;4.27;2.83;;;37.50;34.60;;;;;;10224970;28;20705;-71
2023/06/06 08:24:01;;;;;;;5.43;3.50;;;37.20;34.30;;;;;;10223733;28;20252;-71
2023/06/06 08:29:01;;;;;;;5.87;3.20;;;38.50;32.10;;;;;;10221779;28;20227;-71
2023/06/06 08:34:02;;;;;;;3.33;2.90;;;36.80;34.70;;;;;;10220262;28;20815;-71
2023/06/06 08:39:06;;;;;;;6.27;3.33;;;37.60;34.10;;;;;;10222216;28;20220;-71
2023/06/06 08:44:07;;;;;;;4.17;3.50;;;40.20;32.20;;;;;;10227367;28;20251;-71
2023/06/06 08:49:10;;;;;;;5.90;3.43;;;38.60;31.50;;;;;;10217983;28;20311;-71
2023/06/06 08:54:11;;;;;;;6.33;3.33;;;38.70;32.00;;;;;;10226528;28;20257;-71
2023/06/06 08:59:14;;;;;;;3.77;3.07;;;37.80;32.80;;;;;;10217048;28;20228;-71
2023/06/06 09:04:20;;;;;;;3.83;3.30;;;38.40;32.40;;;;;;10230623;28;20212;-71
2023/06/06 09:09:21;;;;;;;6.30;3.90;;;39.70;32.10;;;;;;10224822;28;20311;-72
2023/06/06 09:14:21;;;;;;;4.33;3.40;;;41.20;30.00;;;;;;10225859;28;20227;-71
2023/06/06 09:19:26;;;;;;;5.03;3.20;;;39.30;29.60;;;;;;10222422;28;20351;-72
2023/06/06 09:24:28;;;;;;;7.27;3.70;;;39.30;30.80;;;;;;10223862;28;20235;-73
2023/06/06 09:29:29;;;;;;;4.20;3.40;;;40.60;29.70;;;;;;10229344;28;20215;-72
2023/06/06 09:34:30;;;;;;;5.30;3.03;;;41.50;28.90;;;;;;10226844;28;20587;-72
2023/06/06 09:39:30;;;;;;;4.93;3.40;;;40.50;27.90;;;;;;10222415;28;20231;-72
2023/06/06 09:44:31;;;;;;;8.70;3.20;;;37.80;29.30;;;;;;10226796;28;20227;-72
2023/06/06 09:49:36;;;;;;;3.63;2.87;;;37.20;30.70;;;;;;10226469;28;20234;-72
2023/06/06 09:54:43;;;;;;;3.33;3.03;;;40.10;29.30;;;;;;10225915;28;20310;-72
2023/06/06 09:59:44;;;;;;;5.77;3.40;;;41.40;26.60;;;;;;10230917;28;20211;-72
2023/06/06 10:04:47;;;;;;;3.67;2.70;;;40.60;27.00;;;;;;10227520;28;20243;-71
2023/06/06 10:09:49;;;;;;;4.15;2.70;;;42.10;26.10;;;;;;10219609;28;20250;-72
2023/06/06 10:14:50;;;;;;;3.90;3.00;;;43.20;24.20;;;;;;10227185;28;20639;-71
2023/06/06 10:19:56;;;;;;;5.93;3.00;;;40.20;25.10;;;;;;10220407;28;20232;-73
2023/06/06 10:24:57;;;;;;;3.10;2.80;;;39.10;26.30;;;;;;10236760;28;20705;-73
2023/06/06 10:30:13;;;;;;;7.57;3.23;;;39.90;25.70;;;;;;10231638;28;20241;-72
2023/06/06 10:35:15;;;;;;;3.72;3.00;;;40.80;24.40;;;;;;10230072;28;20263;-73
2023/06/06 10:40:16;;;;;;;4.07;3.28;;;42.40;24.00;;;;;;10224505;28;20203;-71
2023/06/06 10:45:57;;;;;;;7.28;2.90;;;44.90;22.80;;;;;;10224550;28;20192;-72
2023/06/06 10:50:57;;;;;;;3.47;3.03;;;44.90;22.20;;;;;;10220653;28;20224;-72
2023/06/06 10:55:58;;;;;;;5.37;2.97;;;39.90;25.10;;;;;;10232025;28;20231;-72
2023/06/06 11:01:06;;;;;;;2.93;2.40;;;37.50;27.00;;;;;;10228512;28;20219;-72
2023/06/06 11:06:11;;;;;;;5.67;3.20;;;39.40;26.20;;;;;;10225993;28;20639;-72
2023/06/06 11:11:14;;;;;;;3.60;3.20;;;40.30;25.30;;;;;;10230131;28;20247;-71
2023/06/06 11:16:15;;;;;;;9.97;2.67;;;38.70;26.70;;;;;;10226189;28;20312;-71
2023/06/06 11:21:18;;;;;;;3.33;2.63;;;37.90;26.60;;;;;;10229051;28;20314;-72
2023/06/06 11:26:20;;;;;;;6.20;2.77;;;37.50;27.90;;;;;;10221955;28;20244;-72
2023/06/06 11:31:25;;;;;;;6.83;3.00;;;39.20;27.30;;;;;;10230467;28;20219;-71
2023/06/06 11:36:29;;;;;;;9.03;3.53;;;38.30;27.00;;;;;;10225559;28;20725;-71
2023/06/06 11:41:33;;;;;;;4.00;3.30;;;36.10;30.00;;;;;;10219711;28;20326;-71
2023/06/06 11:46:48;;;;;;;5.50;3.20;;;33.60;31.40;;;;;;10228849;28;20767;-70
2023/06/06 11:51:59;;;;;;;6.23;3.20;;;31.20;32.90;;;;;;10276415;28;20236;-71
2023/06/06 11:57:05;;;;;;;5.90;3.10;;;30.10;34.60;;;;;;10233263;28;20223;-71
2023/06/06 12:02:06;;;;;;;7.33;3.27;;;29.50;35.90;;;;;;10243161;28;20253;-71
2023/06/06 12:07:07;;;;;;;4.10;2.97;;;29.60;35.70;;;;;;10225370;28;20258;-70
2023/06/06 12:12:10;;;;;;;6.40;3.53;;;30.10;34.50;;;;;;10226621;28;20227;-72
2023/06/06 12:17:10;;;;;;;6.67;3.27;;;30.00;35.30;;;;;;10228436;28;20642;-70
2023/06/06 12:22:13;;;;;;;6.63;2.90;;;29.50;35.90;;;;;;10225621;28;20255;-73
2023/06/06 12:27:27;;;;;;;8.07;3.03;;;29.40;35.80;;;;;;10235130;28;20703;-71
2023/06/06 12:32:30;;;;;;;4.57;3.07;;;29.40;36.70;;;;;;10227093;28;20228;-72
2023/06/06 12:37:46;;;;;;;6.10;3.10;;;29.50;36.80;;;;;;10229580;28;20218;-72
2023/06/06 12:42:57;;;;;;;5.73;3.17;;;29.80;36.60;;;;;;10216780;28;20286;-71
2023/06/06 12:48:01;;;;;;;6.73;3.13;;;30.10;37.00;;;;;;10224019;28;20228;-71
2023/06/06 12:53:02;;;;;;;14.30;3.70;;;30.50;36.20;;;;;;10222554;28;20227;-72
2023/06/06 12:58:03;;;;;;;3.57;3.27;;;30.10;36.40;;;;;;10222779;28;20270;-72
2023/06/06 13:03:05;;;;;;;6.30;3.37;;;29.00;38.40;;;;;;10232309;28;20250;-71
2023/06/06 13:08:06;;;;;;;4.03;3.23;;;28.80;39.10;;;;;;10230175;28;20231;-71
2023/06/06 13:13:07;;;;;;;5.20;3.33;;;28.90;39.30;;;;;;10228171;28;20232;-71
2023/06/06 13:18:07;;;;;;;15.17;4.37;;;28.80;40.60;;;;;;10230745;28;20368;-71
2023/06/06 13:23:08;;;;;;;7.30;3.60;;;28.50;41.50;;;;;;10226452;28;20718;-72
2023/06/06 13:28:08;;;;;;;8.77;3.47;;;27.70;43.30;;;;;;10230880;28;20318;-71
2023/06/06 13:33:09;;;;;;;7.43;3.70;;;27.20;44.10;;;;;;10222161;28;20623;-71
2023/06/06 13:38:10;;;;;;;5.43;3.60;;;27.10;44.50;;;;;;10235085;28;20234;-71
2023/06/06 13:43:11;;;;;;;7.07;3.40;;;26.90;44.70;;;;;;10225430;28;20278;-72
2023/06/06 13:48:12;;;;;;;6.97;3.40;;;27.10;44.10;;;;;;10231395;28;20234;-70
2023/06/06 13:53:14;;;;;;;5.20;3.20;;;26.60;46.90;;;;;;10227870;28;20242;-70
2023/06/06 13:58:21;;;;;;;4.63;3.30;;;27.00;46.20;;;;;;10227139;28;20231;-70
2023/06/06 14:03:21;;;;;;;4.63;2.90;;;27.30;45.00;;;;;;10228406;28;20318;-71
2023/06/06 14:08:22;;;;;;;4.33;3.30;;;27.20;44.80;;;;;;10229514;28;20782;-72
2023/06/06 14:13:22;;;;;;;7.83;3.23;;;27.20;45.20;;;;;;10223636;28;20232;-72
2023/06/06 14:18:23;;;;;;;5.60;3.40;;;27.30;44.50;;;;;;10219957;28;20212;-71
2023/06/06 14:23:24;;;;;;;10.00;2.80;;;27.40;43.90;;;;;;10227876;28;20612;-72
2023/06/06 14:28:24;;;;;;;5.20;2.90;;;27.10;43.00;;;;;;10222547;28;20285;-71
2023/06/06 14:33:26;;;;;;;5.00;3.30;;;26.90;43.40;;;;;;10232133;28;20222;-72
2023/06/06 14:38:29;;;;;;;5.30;2.73;;;26.90;43.80;;;;;;10227380;28;20219;-70
2023/06/06 14:43:30;;;;;;;6.97;2.83;;;26.90;44.10;;;;;;10222528;28;20247;-72
2023/06/06 14:48:31;;;;;;;7.13;2.97;;;26.80;43.70;;;;;;10224783;28;20268;-71
2023/06/06 14:53:31;;;;;;;4.90;3.00;;;26.90;42.50;;;;;;10227824;28;20326;-70
2023/06/06 14:58:32;;;;;;;5.40;2.70;;;27.00;41.60;;;;;;10229047;28;20220;-71
2023/06/06 15:03:33;;;;;;;11.23;2.60;;;26.80;42.00;;;;;;10224920;28;20715;-71
2023/06/06 15:08:34;;;;;;;6.43;2.40;;;26.70;41.80;;;;;;10223415;28;20223;-72
2023/06/06 15:13:35;;;;;;;3.60;2.40;;;26.50;43.00;;;;;;10225979;28;20250;-72
2023/06/06 15:18:38;;;;;;;9.23;2.67;;;26.60;42.40;;;;;;10217363;28;20223;-72
2023/06/06 15:23:39;;;;;;;5.43;2.50;;;26.40;42.60;;;;;;10225924;28;20231;-71
2023/06/06 15:28:40;;;;;;;6.30;2.40;;;26.40;42.70;;;;;;10230564;28;20223;-72
2023/06/06 15:33:40;;;;;;;4.03;2.60;;;26.40;42.70;;;;;;10222452;28;20232;-71
2023/06/06 15:38:41;;;;;;;5.10;2.77;;;26.40;43.20;;;;;;10224746;28;20242;-71
2023/06/06 15:43:42;;;;;;;5.60;2.80;;;26.30;42.80;;;;;;10228442;28;20635;-71
2023/06/06 15:48:42;;;;;;;4.73;2.37;;;26.20;42.50;;;;;;10227710;28;20256;-71
2023/06/06 15:53:44;;;;;;;4.97;2.57;;;26.20;43.30;;;;;;10225744;28;20219;-71
2023/06/06 15:58:48;;;;;;;5.47;2.60;;;26.10;43.30;;;;;;10224855;28;20219;-71
2023/06/06 16:03:48;;;;;;;6.00;2.70;;;26.10;42.70;;;;;;10221721;28;20251;-72
2023/06/06 16:08:52;;;;;;;4.83;2.50;;;25.90;43.10;;;;;;10223970;28;20303;-72
2023/06/06 16:13:54;;;;;;;4.60;2.60;;;25.80;43.50;;;;;;10231220;28;20227;-70
2023/06/06 16:18:55;;;;;;;5.60;3.30;;;25.80;43.20;;;;;;10216194;28;20227;-71
2023/06/06 16:23:56;;;;;;;5.77;2.77;;;25.70;43.30;;;;;;10216147;28;20917;-72
2023/06/06 16:28:56;;;;;;;6.50;2.77;;;25.70;43.60;;;;;;10312511;28;20347;-72
2023/06/06 16:33:57;;;;;;;6.40;2.50;;;25.50;43.30;;;;;;10229117;28;20223;-72
2023/06/06 16:38:57;;;;;;;6.70;2.60;;;25.40;44.40;;;;;;10217199;28;20215;-71
2023/06/06 16:43:58;;;;;;;7.37;2.73;;;25.50;44.30;;;;;;10222121;28;20783;-70
2023/06/06 16:48:58;;;;;;;8.00;2.50;;;25.20;44.00;;;;;;10230028;28;20903;-71
2023/06/06 16:54:00;;;;;;;3.47;2.37;;;25.10;44.60;;;;;;10220294;28;20237;-71
2023/06/06 16:59:01;;;;;;;5.43;2.80;;;25.00;44.90;;;;;;10223983;28;20224;-72
2023/06/06 17:04:04;;;;;;;5.53;2.60;;;24.90;45.10;;;;;;10228195;28;20298;-71
2023/06/06 17:09:05;;;;;;;5.43;2.63;;;24.80;44.80;;;;;;10224098;28;20302;-71
2023/06/06 17:14:06;;;;;;;5.00;2.63;;;24.70;45.40;;;;;;10222237;28;20669;-72
2023/06/06 17:19:07;;;;;;;5.73;2.60;;;24.60;45.80;;;;;;10222041;28;20250;-72
2023/06/06 17:24:07;;;;;;;4.73;2.47;;;24.60;46.00;;;;;;10220362;28;20229;-71
2023/06/06 17:29:11;;;;;;;5.20;3.20;;;24.50;46.00;;;;;;10225299;28;20231;-72
2023/06/06 17:34:13;;;;;;;3.53;2.50;;;24.50;45.90;;;;;;10218130;28;20270;-72
2023/06/06 17:39:15;;;;;;;2.83;2.40;;;24.30;46.30;;;;;;10235287;28;20295;-72
2023/06/06 17:44:15;;;;;;;3.67;2.87;;;24.20;46.80;;;;;;10224252;28;20243;-71
2023/06/06 17:49:16;;;;;;;5.60;2.50;;;24.10;46.90;;;;;;10224799;28;20228;-71
2023/06/06 17:54:16;;;;;;;2.97;2.30;;;24.10;47.20;;;;;;10241876;28;20220;-71
2023/06/06 17:59:23;;;;;;;2.70;2.30;;;24.00;47.00;;;;;;10224382;28;20220;-72
2023/06/06 18:04:23;;;;;;;4.97;2.80;;;23.90;47.00;;;;;;10225253;28;20243;-72
2023/06/06 18:09:24;;;;;;;3.87;2.47;;;23.80;47.30;;;;;;10223207;28;20244;-70
2023/06/06 18:14:25;;;;;;;6.27;2.47;;;23.70;47.70;;;;;;10233336;28;20311;-71
2023/06/06 18:19:25;;;;;;;7.60;2.60;;;23.50;48.10;;;;;;10235276;28;20234;-72
2023/06/06 18:24:26;;;;;;;2.47;2.17;;;23.40;48.10;;;;;;10233530;28;20217;-71
2023/06/06 18:29:28;;;;;;;2.90;2.27;;;23.30;48.40;;;;;;10222536;28;20230;-71
2023/06/06 18:34:28;;;;;;;3.60;2.33;;;23.30;48.80;;;;;;10216562;28;20227;-71
2023/06/06 18:39:29;;;;;;;10.33;2.80;;;23.20;49.10;;;;;;10221681;28;20707;-71
2023/06/06 18:44:31;;;;;;;2.60;2.40;;;23.10;49.40;;;;;;10232828;28;21041;-71
2023/06/06 18:49:40;;;;;;;5.33;2.50;;;23.00;49.50;;;;;;10220127;28;20224;-71
2023/06/06 18:54:43;;;;;;;4.70;2.50;;;22.90;49.80;;;;;;10217919;28;20251;-71
2023/06/06 18:59:44;;;;;;;3.33;2.73;;;22.80;50.30;;;;;;10227061;28;20915;-71
2023/06/06 19:04:50;;;;;;;5.90;2.90;;;22.60;50.90;;;;;;10220111;28;20227;-71
2023/06/06 19:09:50;;;;;;;2.83;2.50;;;22.50;51.50;;;;;;10226784;28;20277;-71
2023/06/06 19:14:51;;;;;;;3.17;2.57;;;22.30;51.70;;;;;;10227458;28;20571;-71
2023/06/06 19:19:55;;;;;;;4.87;2.30;;;22.20;52.10;;;;;;10240944;28;20223;-71
2023/06/06 19:24:55;;;;;;;4.23;2.60;;;22.10;52.60;;;;;;10219638;28;20273;-71
2023/06/06 19:29:56;;;;;;;4.53;2.50;;;21.90;53.10;;;;;;10231515;28;20224;-71
2023/06/06 19:34:56;;;;;;;5.43;2.63;;;21.70;53.30;;;;;;10224903;28;20319;-71
2023/06/06 19:39:57;;;;;;;3.87;2.50;;;21.70;53.60;;;;;;10231004;28;20230;-71
2023/06/06 19:44:58;;;;;;;5.17;2.63;;;21.50;53.80;;;;;;10223298;28;20254;-71
2023/06/06 19:49:58;;;;;;;5.83;3.00;;;21.40;54.10;;;;;;10229724;28;20302;-72
2023/06/06 19:54:59;;;;;;;6.27;2.90;;;21.20;54.30;;;;;;10218736;28;20223;-72
2023/06/06 20:00:00;;;;;;;3.63;2.37;;;21.10;54.80;;;;;;10238498;28;20220;-71
2023/06/06 20:05:01;;;;;;;4.60;2.83;;;21.00;55.20;;;;;;10222862;28;20655;-71
2023/06/06 20:10:01;;;;;;;5.67;3.07;;;21.00;55.60;;;;;;10232894;28;20242;-71
2023/06/06 20:15:07;;;;;;;4.77;2.83;;;20.90;55.90;;;;;;10223566;28;20305;-71
2023/06/06 20:20:09;;;;;;;4.03;2.33;;;20.80;56.20;;;;;;10221345;28;20247;-71
2023/06/06 20:25:10;;;;;;;4.47;2.70;;;20.70;56.70;;;;;;10225346;28;20199;-71
2023/06/06 20:30:11;;;;;;;3.33;2.57;;;20.60;57.10;;;;;;10220546;28;20203;-70
2023/06/06 20:35:13;;;;;;;6.27;2.73;;;20.50;57.40;;;;;;10223147;28;20676;-70
2023/06/06 20:40:20;;;;;;;4.53;2.70;;;20.40;57.80;;;;;;10225085;28;20208;-72
2023/06/06 20:45:20;;;;;;;4.00;2.30;;;20.40;58.30;;;;;;10224018;28;20656;-71
2023/06/06 20:50:21;;;;;;;4.47;3.00;;;20.20;58.70;;;;;;10221235;28;20196;-72
2023/06/06 20:55:22;;;;;;;8.13;2.90;;;20.10;59.10;;;;;;10220345;28;20307;-72
2023/06/06 21:00:22;;;;;;;2.97;2.43;;;20.00;59.50;;;;;;10223353;28;20563;-71
2023/06/06 21:05:23;;;;;;;4.73;2.70;;;20.00;59.80;;;;;;10228778;28;20702;-71
2023/06/06 21:10:25;;;;;;;5.73;2.70;;;19.90;60.00;;;;;;10218627;28;20521;-72
2023/06/06 21:15:25;;;;;;;3.67;2.70;;;19.90;60.80;;;;;;10235950;28;20234;-71
2023/06/06 21:20:26;;;;;;;3.40;2.73;;;19.80;61.10;;;;;;10230484;28;20318;-71
2023/06/06 21:25:27;;;;;;;3.33;2.53;;;19.70;61.60;;;;;;10231720;28;20711;-72
2023/06/06 21:30:27;;;;;;;4.47;2.60;;;19.60;62.30;;;;;;10227611;28;20243;-72
2023/06/06 21:35:28;;;;;;;4.27;3.00;;;19.60;62.60;;;;;;10230791;28;20231;-71
2023/06/06 21:40:28;;;;;;;6.80;3.13;;;19.50;62.80;;;;;;10227469;28;20249;-71
2023/06/06 21:45:29;;;;;;;6.17;2.90;;;19.40;63.30;;;;;;10223422;28;20224;-70
2023/06/06 21:50:30;;;;;;;3.63;2.50;;;19.20;64.40;;;;;;10233894;28;20337;-72
2023/06/06 21:55:30;;;;;;;5.20;3.13;;;19.10;64.90;;;;;;10223085;28;20715;-72
2023/06/06 22:00:31;;;;;;;5.80;2.63;;;19.10;65.10;;;;;;10228570;28;20319;-72
2023/06/06 22:05:32;;;;;;;4.80;2.50;;;19.10;65.30;;;;;;10234299;28;20215;-72
2023/06/06 22:10:32;;;;;;;4.43;2.67;;;19.00;65.80;;;;;;10220997;28;20255;-71
2023/06/06 22:15:34;;;;;;;4.93;3.00;;;18.90;66.30;;;;;;10229453;28;20228;-71
2023/06/06 22:20:35;;;;;;;5.00;3.00;;;18.90;66.50;;;;;;10230077;28;20211;-71
2023/06/06 22:25:35;;;;;;;4.53;2.57;;;18.80;66.90;;;;;;10228818;28;20632;-71
2023/06/06 22:30:36;;;;;;;4.23;2.73;;;18.60;67.70;;;;;;10220925;28;20687;-70
2023/06/06 22:35:37;;;;;;;3.43;2.73;;;18.60;68.40;;;;;;10226815;28;20262;-71
2023/06/06 22:40:37;;;;;;;4.87;3.13;;;18.50;68.50;;;;;;10229654;28;20226;-70
2023/06/06 22:45:38;;;;;;;5.40;2.60;;;18.60;68.60;;;;;;10219853;28;20223;-71
2023/06/06 22:50:38;;;;;;;4.27;3.10;;;18.60;68.60;;;;;;10219154;28;20722;-71
2023/06/06 22:55:39;;;;;;;3.87;2.83;;;18.60;69.00;;;;;;10223610;28;20227;-71
2023/06/06 23:00:40;;;;;;;6.20;2.73;;;18.50;69.70;;;;;;10226491;28;20243;-71
2023/06/06 23:05:43;;;;;;;4.17;2.70;;;18.30;70.40;;;;;;10219560;28;20293;-71
2023/06/06 23:10:43;;;;;;;3.57;3.00;;;18.30;70.80;;;;;;10232462;28;20301;-71
2023/06/06 23:15:44;;;;;;;5.07;3.13;;;18.30;71.20;;;;;;10226736;28;20241;-72
2023/06/06 23:20:44;;;;;;;4.27;2.83;;;18.20;71.80;;;;;;10217202;28;20315;-70
2023/06/06 23:25:45;;;;;;;4.70;2.87;;;18.10;72.20;;;;;;10231911;28;20791;-69
2023/06/06 23:30:46;;;;;;;3.83;2.67;;;18.00;72.40;;;;;;10225403;28;20227;-71
2023/06/06 23:35:46;;;;;;;4.40;2.70;;;17.90;73.10;;;;;;10217426;28;20611;-70
2023/06/06 23:40:47;;;;;;;4.90;3.03;;;17.90;73.50;;;;;;10238222;28;20718;-71
2023/06/06 23:45:47;;;;;;;3.83;2.80;;;17.80;74.30;;;;;;10231941;28;20253;-71
2023/06/06 23:50:48;;;;;;;3.37;2.60;;;17.70;74.70;;;;;;10231243;28;20303;-69
2023/06/06 23:55:48;;;;;;;3.60;2.90;;;17.70;75.30;;;;;;10217397;28;20232;-71
